• Join FlightAware (Why Join?)
  • Login
  • US Flag 
06:09AM EDT


 

Airport Tracker/Info


-or-


 

Live Flight TrackerFlight Track Log ✈ VH-TXI ✈ 15-May-2013 ✈ YCFS - YCFS

Flight Track Log - Related Links

Times and Time Zones

All times are in EDT time to prevent confusion due to time zone crossing. See the VH-TXI flight status page for this flight to view local times or setup timezone preferences in your user account.

Time Position Orientation Groundspeed Altitude Reporting Facility
EDT Latitude Longitude Course Direction KTS MPH feet Rate Location/Type
11:59PM -30.3164 153.1746 27° Northeast 3,500  Level Aus ATC (Calculated)
12:00AM -30.3143 153.2038 351° North 3,500 240 Level Aus ATC (Calculated)
12:01AM -30.3133 153.2184 332° Northwest 3,500 240 Level Aus ATC (Calculated)
12:02AM -30.3143 153.2023 271° West  Level FlightAware Approximate
12:02AM -30.3122 153.2329 317° Northwest 6,900  Level Aus ATC (Calculated)
12:04AM -30.3122 153.2314 270° West  Level FlightAware Approximate
12:04AM -30.3265 153.1298 50° Northeast 6,900  Level Aus ATC (Calculated)
12:06AM -30.3263 153.1281 279° West  Level FlightAware Approximate
12:06AM -30.3265 153.1298 50° Northeast 6,900  Level Aus ATC (Calculated)
12:08AM -30.3263 153.1283 279° West  Level FlightAware Approximate
12:09AM -30.3262 153.1273 279° West  Level FlightAware Approximate
12:10AM -30.3261 153.1264 279° West  Level FlightAware Approximate
12:10AM -30.3408 153.0267 67° East 6,500  Level Aus ATC (Calculated)
12:12AM -30.3393 153.0264 350° North  Level FlightAware Approximate
12:13AM -30.3385 153.0262 350° North  Level FlightAware Approximate
12:13AM -30.4126 153.1172 27° Northeast 4,600  Level Aus ATC (Calculated)
12:14AM -30.3624 153.0690 53° Northeast 4,600 720 Level Aus ATC (Calculated)
12:15AM -30.4114 153.1160 320° Northwest  Level FlightAware Approximate
12:16AM -30.3615 153.0682 320° Northwest  Level FlightAware Approximate
12:16AM -30.3122 153.0209 78° East 1,900  Level Aus ATC (Calculated)
12:16AM -30.3122 153.0209 78° East 1,900 4,740 Level Aus ATC (Calculated)
12:18AM -30.3114 153.0209 North  Level FlightAware Approximate
12:18AM -30.2787 153.1970 North 65 75 8,600  Level Aus ATC (RADAR)
12:20AM -30.2571 153.1647 308° West 93 107 9,100 240 Climbing Aus ATC (RADAR)
12:20AM -30.2581 153.1578 260° West 65 75 9,200 300 Climbing Aus ATC (RADAR)
12:21AM -30.2621 153.1500 239° Southwest 55 63 9,400 360 Climbing Aus ATC (RADAR)
12:21AM -30.2621 153.1391 270° West 62 71 9,600 -360 Climbing Aus ATC (RADAR)
12:24AM -30.3227 153.1396 180° South 156 180 8,300 -480 Descending Aus ATC (RADAR)
12:26AM -30.3226 153.1385 276° West  Level FlightAware Approximate
12:33AM -30.3221 153.1320 276° West  Level FlightAware Approximate
12:34AM -30.3220 153.1311 276° West  Level FlightAware Approximate
12:35AM -30.3219 153.1302 276° West  Level FlightAware Approximate
12:36AM -30.3218 153.1292 276° West  Level FlightAware Approximate
12:37AM -30.3217 153.1283 276° West  Level FlightAware Approximate
12:38AM -30.3216 153.1274 276° West  Level FlightAware Approximate
12:39AM -30.3216 153.1264 276° West  Level FlightAware Approximate
12:40AM -30.3215 153.1255 276° West  Level FlightAware Approximate
12:41AM -30.3214 153.1246 276° West  Level FlightAware Approximate
12:42AM -30.3213 153.1237 276° West  Level FlightAware Approximate
12:43AM -30.3213 153.1227 276° West  Level FlightAware Approximate
12:44AM -30.3212 153.1218 276° West  Level FlightAware Approximate
12:45AM -30.3211 153.1209 276° West  Level FlightAware Approximate
12:46AM -30.3209 153.1189 276° West  Level FlightAware Approximate
12:47AM -30.3207 153.1169 276° West  Level FlightAware Approximate
12:48AM -30.3206 153.1150 276° West  Level FlightAware Approximate
12:49AM -30.3204 153.1130 276° West  Level FlightAware Approximate
12:50AM -30.3202 153.1111 276° West  Level FlightAware Approximate
12:51AM -30.3201 153.1091 276° West  Level FlightAware Approximate
12:52AM -30.3199 153.1071 276° West  Level FlightAware Approximate
12:53AM -30.3200 153.1091 350° North  Level Estimated
12:54AM -30.3202 153.1111 350° North  Level Estimated
12:55AM -30.3203 153.1130 350° North  Level Estimated
12:56AM -30.3205 153.1150 350° North  Level Estimated
12:57AM -30.3206 153.1164 350° North  Level Estimated
12:58AM -30.3206 153.1164 350° North  Level Estimated
12:59AM -30.3206 153.1164 350° North  Level Estimated
01:00AM -30.3206 153.1164 350° North  Level Estimated
01:01AM -30.3206 153.1164 350° North  Level Estimated
01:02AM -30.3206 153.1164 350° North  Level Estimated
01:03AM -30.3206 153.1164 350° North  Level Estimated
01:04AM -30.3206 153.1164 350° North  Level Estimated
01:05AM -30.3206 153.1164 350° North  Level Estimated
01:06AM -30.3206 153.1164 350° North  Level Estimated
01:07AM -30.3206 153.1164 350° North  Level Estimated
01:08AM -30.3206 153.1164 350° North  Level Estimated
01:09AM -30.3206 153.1164 350° North  Level Estimated
01:10AM -30.3206 153.1164 350° North  Level Estimated
01:11AM -30.3206 153.1164 350° North  Level Estimated
01:12AM -30.3206 153.1164 350° North  Level Estimated
01:13AM -30.3206 153.1164 350° North  Level Estimated
01:14AM -30.3206 153.1164 350° North  Level Estimated
01:15AM -30.3206 153.1164 350° North  Level Estimated
01:16AM -30.3206 153.1164 350° North  Level Estimated
01:17AM -30.3206 153.1164 350° North  Level Estimated
01:18AM -30.3206 153.1164 350° North  Level Estimated
01:19AM -30.3206 153.1164 350° North  Level Estimated
01:20AM -30.3206 153.1164 350° North  Level Estimated
01:21AM -30.3206 153.1164 350° North  Level Estimated
01:22AM -30.3206 153.1164 350° North  Level Estimated
01:23AM -30.3206 153.1164 350° North  Level Estimated
01:24AM -30.3206 153.1164 350° North  Level Estimated
01:25AM -30.3206 153.1164 350° North  Level Estimated
01:26AM -30.3206 153.1164 350° North  Level Estimated
01:27AM -30.3206 153.1164 350° North  Level Estimated
01:28AM -30.3206 153.1164 350° North  Level Estimated
01:29AM -30.3206 153.1164 350° North  Level Estimated
01:30AM -30.3206 153.1164 350° North  Level Estimated
01:31AM -30.3206 153.1164 350° North  Level Estimated
01:32AM -30.3206 153.1164 350° North  Level Estimated
01:33AM -30.3206 153.1164 350° North  Level Estimated
01:34AM -30.3206 153.1164 350° North  Level Estimated
01:35AM -30.3206 153.1164 350° North  Level Estimated
01:36AM -30.3206 153.1164 350° North  Level Estimated
01:37AM -30.3206 153.1164 350° North  Level Estimated
01:38AM -30.3206 153.1164 350° North  Level Estimated
01:39AM -30.3206 153.1164 350° North  Level Estimated
01:40AM -30.3206 153.1164 350° North  Level Estimated
01:41AM -30.3206 153.1164 350° North  Level Estimated
01:42AM -30.3206 153.1164 350° North  Level Estimated
01:43AM -30.3206 153.1164 350° North  Level Estimated
01:44AM -30.3206 153.1164 350° North  Level Estimated
01:45AM -30.3206 153.1164 350° North  Level Estimated
01:46AM -30.3206 153.1164 350° North  Level Estimated
01:47AM -30.3206 153.1164 350° North  Level Estimated
01:48AM -30.3206 153.1164 350° North  Level Estimated
01:49AM -30.3206 153.1164 350° North  Level Estimated
01:50AM -30.3206 153.1164 350° North  Level Estimated
01:51AM -30.3206 153.1164 350° North  Level Estimated
01:52AM -30.3206 153.1164 350° North  Level Estimated
01:53AM -30.3206 153.1164 350° North  Level Estimated
01:54AM -30.3206 153.1164 350° North  Level Estimated
01:55AM -30.3206 153.1164 350° North  Level Estimated
01:56AM -30.3206 153.1164 350° North  Level Estimated
01:57AM -30.3206 153.1164 350° North  Level Estimated
01:58AM -30.3206 153.1164 350° North  Level Estimated
01:59AM -30.3206 153.1164 350° North  Level Estimated
02:00AM -30.3206 153.1164 350° North  Level Estimated
02:01AM -30.3206 153.1164 350° North  Level Estimated
02:02AM -30.3206 153.1164 350° North  Level Estimated
02:03AM -30.3206 153.1164 350° North  Level Estimated
02:04AM -30.3206 153.1164 350° North  Level Estimated
02:05AM -30.3206 153.1164 350° North  Level Estimated
02:06AM -30.3206 153.1164 350° North  Level Estimated
02:07AM -30.3206 153.1164 350° North  Level Estimated
02:08AM -30.3206 153.1164 350° North  Level Estimated
02:09AM -30.3206 153.1164 350° North  Level Estimated
02:10AM -30.3206 153.1164 350° North  Level Estimated
02:11AM -30.3206 153.1164 350° North  Level Estimated
02:12AM -30.3206 153.1164 350° North  Level Estimated
02:13AM -30.3206 153.1164 350° North  Level Estimated